sensor_id;sensor_type;location;lat;lon;timestamp;pressure;altitude;pressure_sealevel;temperature;humidity
78773;BME280;68111;44.728;11.290;2023-06-14T00:00:02;100910.31;;;24.12;54.50
78773;BME280;68111;44.728;11.290;2023-06-14T00:02:31;100913.16;;;24.09;54.22
78773;BME280;68111;44.728;11.290;2023-06-14T00:04:57;100911.56;;;24.05;54.52
78773;BME280;68111;44.728;11.290;2023-06-14T00:07:36;100911.72;;;24.02;54.55
78773;BME280;68111;44.728;11.290;2023-06-14T00:10:05;100909.03;;;24.02;54.46
78773;BME280;68111;44.728;11.290;2023-06-14T00:12:32;100897.28;;;24.03;54.55
78773;BME280;68111;44.728;11.290;2023-06-14T00:14:59;100903.47;;;24.05;54.48
78773;BME280;68111;44.728;11.290;2023-06-14T00:17:28;100904.28;;;24.07;54.77
78773;BME280;68111;44.728;11.290;2023-06-14T00:19:59;100899.75;;;24.08;54.44
78773;BME280;68111;44.728;11.290;2023-06-14T00:22:25;100907.75;;;24.09;54.39
78773;BME280;68111;44.728;11.290;2023-06-14T00:24:55;100906.03;;;24.08;54.57
78773;BME280;68111;44.728;11.290;2023-06-14T00:27:22;100906.34;;;24.02;54.47
78773;BME280;68111;44.728;11.290;2023-06-14T00:29:49;100910.16;;;23.98;54.89
78773;BME280;68111;44.728;11.290;2023-06-14T00:32:17;100903.00;;;23.97;55.02
78773;BME280;68111;44.728;11.290;2023-06-14T00:34:44;100896.78;;;23.95;54.95
78773;BME280;68111;44.728;11.290;2023-06-14T00:37:11;100902.28;;;23.93;54.79
78773;BME280;68111;44.728;11.290;2023-06-14T00:39:38;100892.50;;;23.91;55.06
78773;BME280;68111;44.728;11.290;2023-06-14T00:42:05;100889.09;;;23.87;55.17
78773;BME280;68111;44.728;11.290;2023-06-14T00:44:32;100887.41;;;23.85;55.36
78773;BME280;68111;44.728;11.290;2023-06-14T00:47:01;100887.56;;;23.82;55.54
78773;BME280;68111;44.728;11.290;2023-06-14T00:49:29;100885.81;;;23.81;55.53
78773;BME280;68111;44.728;11.290;2023-06-14T00:51:56;100879.63;;;23.79;55.24
78773;BME280;68111;44.728;11.290;2023-06-14T00:54:22;100885.09;;;23.77;55.21
78773;BME280;68111;44.728;11.290;2023-06-14T00:56:49;100890.56;;;23.76;55.63
78773;BME280;68111;44.728;11.290;2023-06-14T00:59:17;100896.28;;;23.70;55.64
78773;BME280;68111;44.728;11.290;2023-06-14T01:01:44;100893.97;;;23.62;55.84
78773;BME280;68111;44.728;11.290;2023-06-14T01:04:11;100896.03;;;23.57;56.18
78773;BME280;68111;44.728;11.290;2023-06-14T01:09:46;100887.69;;;23.43;56.46
78773;BME280;68111;44.728;11.290;2023-06-14T01:12:35;100895.03;;;23.39;56.22
78773;BME280;68111;44.728;11.290;2023-06-14T01:15:05;100881.50;;;23.41;55.99
78773;BME280;68111;44.728;11.290;2023-06-14T01:17:34;100883.25;;;23.42;56.04
78773;BME280;68111;44.728;11.290;2023-06-14T01:20:02;100877.97;;;23.39;56.45
78773;BME280;68111;44.728;11.290;2023-06-14T01:22:30;100880.59;;;23.40;56.34
78773;BME280;68111;44.728;11.290;2023-06-14T01:24:57;100877.84;;;23.42;56.30
78773;BME280;68111;44.728;11.290;2023-06-14T01:27:25;100877.84;;;23.42;56.41
78773;BME280;68111;44.728;11.290;2023-06-14T01:29:55;100873.34;;;23.42;56.65
78773;BME280;68111;44.728;11.290;2023-06-14T01:32:26;100869.75;;;23.42;56.47
78773;BME280;68111;44.728;11.290;2023-06-14T01:34:54;100878.84;;;23.39;56.76
78773;BME280;68111;44.728;11.290;2023-06-14T01:37:21;100878.84;;;23.39;56.71
78773;BME280;68111;44.728;11.290;2023-06-14T01:39:49;100866.31;;;23.38;56.66
78773;BME280;68111;44.728;11.290;2023-06-14T01:42:18;100868.19;;;23.36;56.69
78773;BME280;68111;44.728;11.290;2023-06-14T01:44:46;100863.75;;;23.35;56.90
78773;BME280;68111;44.728;11.290;2023-06-14T01:47:14;100872.72;;;23.36;56.53
78773;BME280;68111;44.728;11.290;2023-06-14T01:49:41;100864.69;;;23.34;56.73
78773;BME280;68111;44.728;11.290;2023-06-14T01:52:08;100866.44;;;23.35;56.87
78773;BME280;68111;44.728;11.290;2023-06-14T01:54:36;100854.06;;;23.31;57.06
78773;BME280;68111;44.728;11.290;2023-06-14T01:57:08;100860.47;;;23.28;57.25
78773;BME280;68111;44.728;11.290;2023-06-14T01:59:37;100858.81;;;23.26;57.15
78773;BME280;68111;44.728;11.290;2023-06-14T02:02:04;100860.72;;;23.24;57.29
78773;BME280;68111;44.728;11.290;2023-06-14T02:04:31;100856.25;;;23.23;57.23
78773;BME280;68111;44.728;11.290;2023-06-14T02:06:58;100858.31;;;23.18;57.44
78773;BME280;68111;44.728;11.290;2023-06-14T02:09:25;100854.00;;;23.14;57.81
78773;BME280;68111;44.728;11.290;2023-06-14T02:11:53;100861.44;;;23.09;57.83
78773;BME280;68111;44.728;11.290;2023-06-14T02:14:20;100850.88;;;23.04;57.89
78773;BME280;68111;44.728;11.290;2023-06-14T02:16:47;100850.16;;;23.01;58.15
78773;BME280;68111;44.728;11.290;2023-06-14T02:19:16;100852.06;;;22.98;57.78
78773;BME280;68111;44.728;11.290;2023-06-14T02:21:44;100852.06;;;22.98;58.01
78773;BME280;68111;44.728;11.290;2023-06-14T02:24:12;100853.81;;;22.99;57.91
78773;BME280;68111;44.728;11.290;2023-06-14T02:26:39;100847.53;;;22.99;57.90
78773;BME280;68111;44.728;11.290;2023-06-14T02:29:07;100849.28;;;23.00;58.41
78773;BME280;68111;44.728;11.290;2023-06-14T02:31:40;100845.78;;;22.98;58.24
78773;BME280;68111;44.728;11.290;2023-06-14T02:34:07;100853.22;;;22.93;58.64
78773;BME280;68111;44.728;11.290;2023-06-14T02:36:35;100855.97;;;22.91;58.48
78773;BME280;68111;44.728;11.290;2023-06-14T02:39:09;100848.91;;;22.89;58.66
78773;BME280;68111;44.728;11.290;2023-06-14T02:41:36;100848.03;;;22.88;58.16
78773;BME280;68111;44.728;11.290;2023-06-14T02:44:03;100851.69;;;22.87;58.44
78773;BME280;68111;44.728;11.290;2023-06-14T02:46:31;100861.44;;;22.90;58.59
78773;BME280;68111;44.728;11.290;2023-06-14T02:48:58;100859.63;;;22.90;58.13
78773;BME280;68111;44.728;11.290;2023-06-14T02:51:25;100854.22;;;22.90;58.42
78773;BME280;68111;44.728;11.290;2023-06-14T02:53:52;100859.63;;;22.90;58.63
78773;BME280;68111;44.728;11.290;2023-06-14T02:56:19;100865.16;;;22.87;58.64
78773;BME280;68111;44.728;11.290;2023-06-14T02:58:47;100856.28;;;22.85;58.26
78773;BME280;68111;44.728;11.290;2023-06-14T03:01:16;100862.69;;;22.83;58.42
78773;BME280;68111;44.728;11.290;2023-06-14T03:03:43;100854.66;;;22.81;58.52
78773;BME280;68111;44.728;11.290;2023-06-14T03:06:10;100861.03;;;22.79;58.65
78773;BME280;68111;44.728;11.290;2023-06-14T03:08:43;100857.53;;;22.77;58.67
78773;BME280;68111;44.728;11.290;2023-06-14T03:11:14;100860.16;;;22.78;58.13
78773;BME280;68111;44.728;11.290;2023-06-14T03:13:41;100859.22;;;22.79;58.63
78773;BME280;68111;44.728;11.290;2023-06-14T03:16:08;100862.94;;;22.77;58.29
78773;BME280;68111;44.728;11.290;2023-06-14T03:18:38;100857.69;;;22.74;58.32
78773;BME280;68111;44.728;11.290;2023-06-14T03:21:06;100856.88;;;22.72;58.90
78773;BME280;68111;44.728;11.290;2023-06-14T03:23:37;100860.31;;;22.75;58.51
78773;BME280;68111;44.728;11.290;2023-06-14T03:26:04;100861.91;;;22.79;58.24
78773;BME280;68111;44.728;11.290;2023-06-14T03:28:32;100853.72;;;22.82;58.52
78773;BME280;68111;44.728;11.290;2023-06-14T03:30:59;100852.63;;;22.86;58.22
78773;BME280;68111;44.728;11.290;2023-06-14T03:33:30;100848.84;;;22.90;58.63
78773;BME280;68111;44.728;11.290;2023-06-14T03:35:57;100846.94;;;22.92;58.12
78773;BME280;68111;44.728;11.290;2023-06-14T03:38:25;100846.94;;;22.92;58.67
78773;BME280;68111;44.728;11.290;2023-06-14T03:40:52;100844.47;;;22.88;58.26
78773;BME280;68111;44.728;11.290;2023-06-14T03:43:18;100841.13;;;22.83;58.44
78773;BME280;68111;44.728;11.290;2023-06-14T03:45:45;100850.16;;;22.82;58.43
78773;BME280;68111;44.728;11.290;2023-06-14T03:48:13;100859.03;;;22.84;58.91
78773;BME280;68111;44.728;11.290;2023-06-14T03:50:40;100847.09;;;22.89;58.45
78773;BME280;68111;44.728;11.290;2023-06-14T03:53:09;100855.69;;;22.97;58.33
78773;BME280;68111;44.728;11.290;2023-06-14T03:55:39;100860.78;;;23.04;58.22
78773;BME280;68111;44.728;11.290;2023-06-14T03:58:26;100855.91;;;23.12;58.03
78773;BME280;68111;44.728;11.290;2023-06-14T04:00:53;100865.44;;;23.19;58.15
78773;BME280;68111;44.728;11.290;2023-06-14T04:03:19;100861.66;;;23.23;58.13
78773;BME280;68111;44.728;11.290;2023-06-14T04:05:51;100861.44;;;23.27;57.94
78773;BME280;68111;44.728;11.290;2023-06-14T04:08:19;100868.44;;;23.31;57.54
78773;BME280;68111;44.728;11.290;2023-06-14T04:10:46;100868.06;;;23.39;57.72
78773;BME280;68111;44.728;11.290;2023-06-14T04:13:13;100869.47;;;23.48;57.15
78773;BME280;68111;44.728;11.290;2023-06-14T04:15:41;100864.78;;;23.51;57.12
78773;BME280;68111;44.728;11.290;2023-06-14T04:18:17;100874.69;;;23.51;57.22
78773;BME280;68111;44.728;11.290;2023-06-14T04:20:49;100867.63;;;23.48;56.92
78773;BME280;68111;44.728;11.290;2023-06-14T04:23:17;100868.59;;;23.47;56.75
78773;BME280;68111;44.728;11.290;2023-06-14T04:25:49;100874.19;;;23.61;56.64
78773;BME280;68111;44.728;11.290;2023-06-14T04:28:16;100878.28;;;24.05;56.20
78773;BME280;68111;44.728;11.290;2023-06-14T04:30:45;100879.94;;;24.59;54.85
78773;BME280;68111;44.728;11.290;2023-06-14T04:33:16;100887.69;;;25.15;53.51
78773;BME280;68111;44.728;11.290;2023-06-14T04:35:44;100885.63;;;25.68;52.27
78773;BME280;68111;44.728;11.290;2023-06-14T04:38:15;100894.53;;;26.15;50.97
78773;BME280;68111;44.728;11.290;2023-06-14T04:40:42;100893.88;;;26.56;50.00
78773;BME280;68111;44.728;11.290;2023-06-14T04:43:13;100885.94;;;26.96;49.75
78773;BME280;68111;44.728;11.290;2023-06-14T04:45:44;100896.97;;;27.35;48.41
78773;BME280;68111;44.728;11.290;2023-06-14T04:48:13;100902.16;;;27.67;47.18
78773;BME280;68111;44.728;11.290;2023-06-14T04:50:40;100899.13;;;27.98;46.21
78773;BME280;68111;44.728;11.290;2023-06-14T04:53:07;100902.19;;;28.46;45.30
78773;BME280;68111;44.728;11.290;2023-06-14T04:55:35;100907.56;;;28.98;44.56
78773;BME280;68111;44.728;11.290;2023-06-14T04:58:03;100902.16;;;29.48;43.03
78773;BME280;68111;44.728;11.290;2023-06-14T05:00:31;100908.16;;;30.01;42.22
78773;BME280;68111;44.728;11.290;2023-06-14T05:02:58;100915.78;;;30.54;41.13
78773;BME280;68111;44.728;11.290;2023-06-14T05:05:25;100920.59;;;30.97;39.73
78773;BME280;68111;44.728;11.290;2023-06-14T05:07:52;100924.31;;;30.85;39.63
78773;BME280;68111;44.728;11.290;2023-06-14T05:10:19;100920.88;;;30.48;39.61
78773;BME280;68111;44.728;11.290;2023-06-14T05:12:46;100924.88;;;30.20;40.02
78773;BME280;68111;44.728;11.290;2023-06-14T05:15:15;100929.56;;;29.94;40.63
78773;BME280;68111;44.728;11.290;2023-06-14T05:17:44;100927.94;;;29.55;40.73
78773;BME280;68111;44.728;11.290;2023-06-14T05:20:14;100918.88;;;29.05;41.79
78773;BME280;68111;44.728;11.290;2023-06-14T05:22:41;100923.06;;;28.58;42.52
78773;BME280;68111;44.728;11.290;2023-06-14T05:25:08;100929.72;;;28.15;43.43
78773;BME280;68111;44.728;11.290;2023-06-14T05:27:35;100930.81;;;27.85;44.08
78773;BME280;68111;44.728;11.290;2023-06-14T05:30:04;100928.88;;;27.60;44.26
78773;BME280;68111;44.728;11.290;2023-06-14T05:32:31;100926.44;;;27.41;44.46
78773;BME280;68111;44.728;11.290;2023-06-14T05:34:58;100931.09;;;27.25;44.91
78773;BME280;68111;44.728;11.290;2023-06-14T05:37:24;100914.44;;;27.03;45.63
78773;BME280;68111;44.728;11.290;2023-06-14T05:39:51;100931.84;;;26.85;45.73
78773;BME280;68111;44.728;11.290;2023-06-14T05:42:18;100923.13;;;26.65;46.53
78773;BME280;68111;44.728;11.290;2023-06-14T05:44:45;100919.81;;;26.46;46.75
78773;BME280;68111;44.728;11.290;2023-06-14T05:47:11;100913.53;;;26.30;47.18
78773;BME280;68111;44.728;11.290;2023-06-14T05:49:39;100919.41;;;26.22;47.44
78773;BME280;68111;44.728;11.290;2023-06-14T05:52:06;100920.75;;;26.15;47.37
78773;BME280;68111;44.728;11.290;2023-06-14T05:54:33;100922.88;;;26.10;47.86
78773;BME280;68111;44.728;11.290;2023-06-14T05:57:00;100923.91;;;26.07;47.83
78773;BME280;68111;44.728;11.290;2023-06-14T05:59:28;100926.03;;;26.02;47.95
78773;BME280;68111;44.728;11.290;2023-06-14T06:01:55;100929.84;;;25.98;48.16
78773;BME280;68111;44.728;11.290;2023-06-14T06:04:23;100920.94;;;25.96;48.38
78773;BME280;68111;44.728;11.290;2023-06-14T06:06:50;100926.38;;;25.96;48.38
78773;BME280;68111;44.728;11.290;2023-06-14T06:09:17;100921.56;;;26.01;48.54
78773;BME280;68111;44.728;11.290;2023-06-14T06:11:44;100923.66;;;26.12;48.31
78773;BME280;68111;44.728;11.290;2023-06-14T06:14:20;100921.94;;;26.25;48.21
78773;BME280;68111;44.728;11.290;2023-06-14T06:16:46;100924.91;;;26.36;47.88
78773;BME280;68111;44.728;11.290;2023-06-14T06:19:13;100923.66;;;26.42;47.87
78773;BME280;68111;44.728;11.290;2023-06-14T06:21:40;100924.25;;;26.47;48.24
78773;BME280;68111;44.728;11.290;2023-06-14T06:24:07;100924.75;;;26.54;48.07
78773;BME280;68111;44.728;11.290;2023-06-14T06:26:34;100923.91;;;26.67;47.76
78773;BME280;68111;44.728;11.290;2023-06-14T06:29:01;100928.75;;;26.91;47.42
78773;BME280;68111;44.728;11.290;2023-06-14T06:31:28;100924.41;;;27.17;47.04
78773;BME280;68111;44.728;11.290;2023-06-14T06:33:55;100927.41;;;27.26;46.69
78773;BME280;68111;44.728;11.290;2023-06-14T06:36:22;100930.31;;;27.23;46.78
78773;BME280;68111;44.728;11.290;2023-06-14T06:38:49;100938.97;;;27.16;46.88
78773;BME280;68111;44.728;11.290;2023-06-14T06:41:15;100936.16;;;27.03;47.39
78773;BME280;68111;44.728;11.290;2023-06-14T06:43:42;100941.25;;;26.93;47.73
78773;BME280;68111;44.728;11.290;2023-06-14T06:46:09;100943.59;;;26.85;47.86
78773;BME280;68111;44.728;11.290;2023-06-14T06:48:36;100941.44;;;26.76;48.00
78773;BME280;68111;44.728;11.290;2023-06-14T06:51:02;100942.91;;;26.82;47.81
78773;BME280;68111;44.728;11.290;2023-06-14T06:53:29;100939.31;;;26.95;47.79
78773;BME280;68111;44.728;11.290;2023-06-14T06:56:09;100945.94;;;27.05;47.38
78773;BME280;68111;44.728;11.290;2023-06-14T06:58:36;100947.88;;;27.18;47.19
78773;BME280;68111;44.728;11.290;2023-06-14T07:01:03;100946.81;;;27.49;46.91
78773;BME280;68111;44.728;11.290;2023-06-14T07:03:30;100952.97;;;27.79;46.53
78773;BME280;68111;44.728;11.290;2023-06-14T07:05:57;100947.88;;;27.87;46.41
78773;BME280;68111;44.728;11.290;2023-06-14T07:08:23;100957.44;;;27.80;46.14
78773;BME280;68111;44.728;11.290;2023-06-14T07:10:50;100963.06;;;27.77;46.56
78773;BME280;68111;44.728;11.290;2023-06-14T07:13:17;100964.50;;;27.83;46.32
78773;BME280;68111;44.728;11.290;2023-06-14T07:15:44;100965.84;;;27.90;46.00
78773;BME280;68111;44.728;11.290;2023-06-14T07:18:11;100963.38;;;27.99;45.77
78773;BME280;68111;44.728;11.290;2023-06-14T07:20:41;100958.50;;;28.04;46.01
78773;BME280;68111;44.728;11.290;2023-06-14T07:23:09;100965.44;;;28.23;45.92
78773;BME280;68111;44.728;11.290;2023-06-14T07:25:37;100964.06;;;28.43;45.33
78773;BME280;68111;44.728;11.290;2023-06-14T07:28:04;100969.13;;;28.61;44.86
78773;BME280;68111;44.728;11.290;2023-06-14T07:30:31;100956.75;;;28.70;44.68
78773;BME280;68111;44.728;11.290;2023-06-14T07:32:57;100963.09;;;28.96;44.33
78773;BME280;68111;44.728;11.290;2023-06-14T07:35:24;100964.16;;;29.19;43.82
78773;BME280;68111;44.728;11.290;2023-06-14T07:37:51;100964.94;;;29.70;43.16
78773;BME280;68111;44.728;11.290;2023-06-14T07:40:20;100965.41;;;30.01;42.20
78773;BME280;68111;44.728;11.290;2023-06-14T07:42:47;100971.75;;;30.25;41.42
78773;BME280;68111;44.728;11.290;2023-06-14T07:45:14;100968.66;;;30.30;41.26
78773;BME280;68111;44.728;11.290;2023-06-14T07:47:41;100969.03;;;30.25;41.13
78773;BME280;68111;44.728;11.290;2023-06-14T07:50:08;100964.03;;;30.19;41.23
78773;BME280;68111;44.728;11.290;2023-06-14T07:52:37;100971.41;;;30.06;41.04
78773;BME280;68111;44.728;11.290;2023-06-14T07:55:04;100974.91;;;29.95;41.77
78773;BME280;68111;44.728;11.290;2023-06-14T07:57:32;100974.41;;;29.77;41.73
78773;BME280;68111;44.728;11.290;2023-06-14T07:59:59;100970.25;;;29.48;42.31
78773;BME280;68111;44.728;11.290;2023-06-14T08:02:26;100977.00;;;29.29;42.94
78773;BME280;68111;44.728;11.290;2023-06-14T08:04:53;100977.44;;;29.23;42.86
78773;BME280;68111;44.728;11.290;2023-06-14T08:07:20;100971.16;;;28.97;43.52
78773;BME280;68111;44.728;11.290;2023-06-14T08:09:47;100977.63;;;28.70;43.64
78773;BME280;68111;44.728;11.290;2023-06-14T08:12:15;100970.00;;;28.62;44.10
78773;BME280;68111;44.728;11.290;2023-06-14T08:14:42;100976.50;;;28.59;44.08
78773;BME280;68111;44.728;11.290;2023-06-14T08:17:09;100978.94;;;28.77;44.16
78773;BME280;68111;44.728;11.290;2023-06-14T08:19:36;100980.06;;;28.99;43.51
78773;BME280;68111;44.728;11.290;2023-06-14T08:22:03;100969.19;;;29.12;43.56
78773;BME280;68111;44.728;11.290;2023-06-14T08:24:30;100981.59;;;29.16;42.88
78773;BME280;68111;44.728;11.290;2023-06-14T08:26:57;100974.50;;;29.26;42.82
78773;BME280;68111;44.728;11.290;2023-06-14T08:29:27;100984.94;;;29.58;42.51
78773;BME280;68111;44.728;11.290;2023-06-14T08:31:55;100989.84;;;30.26;41.90
78773;BME280;68111;44.728;11.290;2023-06-14T08:34:22;100988.50;;;31.02;40.26
78773;BME280;68111;44.728;11.290;2023-06-14T08:36:52;100996.88;;;31.45;39.66
78773;BME280;68111;44.728;11.290;2023-06-14T08:39:18;100983.84;;;32.57;37.93
78773;BME280;68111;44.728;11.290;2023-06-14T08:41:46;100985.31;;;33.85;35.99
78773;BME280;68111;44.728;11.290;2023-06-14T08:44:18;100982.44;;;35.12;33.93
78773;BME280;68111;44.728;11.290;2023-06-14T08:46:47;100982.50;;;35.67;32.43
78773;BME280;68111;44.728;11.290;2023-06-14T08:49:16;100980.47;;;36.14;31.27
78773;BME280;68111;44.728;11.290;2023-06-14T08:51:44;100993.81;;;36.54;30.05
78773;BME280;68111;44.728;11.290;2023-06-14T08:54:11;100994.06;;;36.78;30.17
78773;BME280;68111;44.728;11.290;2023-06-14T08:56:38;100991.97;;;37.58;28.43
78773;BME280;68111;44.728;11.290;2023-06-14T08:59:09;100994.03;;;37.90;27.77
78773;BME280;68111;44.728;11.290;2023-06-14T09:01:37;100988.91;;;38.11;27.42
78773;BME280;68111;44.728;11.290;2023-06-14T09:04:04;101005.53;;;38.28;27.36
78773;BME280;68111;44.728;11.290;2023-06-14T09:06:33;101000.31;;;38.08;26.91
78773;BME280;68111;44.728;11.290;2023-06-14T09:09:00;101004.41;;;37.96;27.15
78773;BME280;68111;44.728;11.290;2023-06-14T09:11:30;101004.00;;;38.50;26.63
78773;BME280;68111;44.728;11.290;2023-06-14T09:13:57;100999.31;;;39.40;25.85
78773;BME280;68111;44.728;11.290;2023-06-14T09:16:25;100997.16;;;40.05;24.17
78773;BME280;68111;44.728;11.290;2023-06-14T09:18:53;100995.38;;;40.12;23.45
78773;BME280;68111;44.728;11.290;2023-06-14T09:21:20;100993.06;;;39.85;22.73
78773;BME280;68111;44.728;11.290;2023-06-14T09:23:48;100992.50;;;39.97;23.09
78773;BME280;68111;44.728;11.290;2023-06-14T09:26:17;100989.31;;;40.63;21.93
78773;BME280;68111;44.728;11.290;2023-06-14T09:28:45;100992.91;;;41.38;21.20
78773;BME280;68111;44.728;11.290;2023-06-14T09:31:17;100992.00;;;41.75;20.52
78773;BME280;68111;44.728;11.290;2023-06-14T09:33:46;100986.00;;;41.93;20.26
78773;BME280;68111;44.728;11.290;2023-06-14T09:36:21;100985.09;;;41.71;19.56
78773;BME280;68111;44.728;11.290;2023-06-14T09:38:55;100974.16;;;41.55;19.50
78773;BME280;68111;44.728;11.290;2023-06-14T09:44:04;100980.28;;;41.80;19.39
78773;BME280;68111;44.728;11.290;2023-06-14T09:46:37;100995.41;;;41.48;19.99
78773;BME280;68111;44.728;11.290;2023-06-14T09:49:05;100983.69;;;40.93;19.99
78773;BME280;68111;44.728;11.290;2023-06-14T09:51:33;100981.34;;;40.45;20.42
78773;BME280;68111;44.728;11.290;2023-06-14T09:54:03;100984.97;;;40.14;20.65
78773;BME280;68111;44.728;11.290;2023-06-14T09:56:41;100977.63;;;39.98;20.51
78773;BME280;68111;44.728;11.290;2023-06-14T09:59:12;100977.53;;;40.15;20.60
78773;BME280;68111;44.728;11.290;2023-06-14T10:01:42;100976.44;;;40.70;20.16
78773;BME280;68111;44.728;11.290;2023-06-14T10:04:10;100982.06;;;40.99;19.87
78773;BME280;68111;44.728;11.290;2023-06-14T10:06:40;100987.63;;;40.99;19.16
78773;BME280;68111;44.728;11.290;2023-06-14T10:09:09;100976.47;;;41.22;19.19
78773;BME280;68111;44.728;11.290;2023-06-14T10:11:37;100979.66;;;41.63;18.63
78773;BME280;68111;44.728;11.290;2023-06-14T10:14:11;100971.88;;;41.29;18.50
78773;BME280;68111;44.728;11.290;2023-06-14T10:16:45;100963.94;;;41.26;18.25
78773;BME280;68111;44.728;11.290;2023-06-14T10:19:22;100965.09;;;41.32;18.14
78773;BME280;68111;44.728;11.290;2023-06-14T10:22:55;100967.09;;;41.38;18.72
78773;BME280;68111;44.728;11.290;2023-06-14T10:25:29;100958.38;;;41.26;18.39
78773;BME280;68111;44.728;11.290;2023-06-14T10:28:22;100962.38;;;40.03;18.81
78773;BME280;68111;44.728;11.290;2023-06-14T10:31:12;100957.91;;;39.15;19.72
78773;BME280;68111;44.728;11.290;2023-06-14T10:33:50;100953.06;;;39.09;20.17
78773;BME280;68111;44.728;11.290;2023-06-14T10:39:10;100952.16;;;39.25;20.41
78773;BME280;68111;44.728;11.290;2023-06-14T10:41:39;100950.16;;;38.62;20.97
78773;BME280;68111;44.728;11.290;2023-06-14T10:46:39;100942.81;;;37.54;22.02
78773;BME280;68111;44.728;11.290;2023-06-14T10:49:09;100938.56;;;37.25;22.91
78773;BME280;68111;44.728;11.290;2023-06-14T10:51:41;100935.09;;;36.97;22.80
78773;BME280;68111;44.728;11.290;2023-06-14T10:54:20;100932.50;;;36.70;22.64
78773;BME280;68111;44.728;11.290;2023-06-14T10:56:48;100934.91;;;36.29;23.67
78773;BME280;68111;44.728;11.290;2023-06-14T10:59:16;100940.22;;;35.68;24.21
78773;BME280;68111;44.728;11.290;2023-06-14T11:01:57;100928.59;;;35.19;25.01
78773;BME280;68111;44.728;11.290;2023-06-14T11:04:40;100923.97;;;35.10;25.17
78773;BME280;68111;44.728;11.290;2023-06-14T11:10:15;100914.28;;;34.59;25.32
78773;BME280;68111;44.728;11.290;2023-06-14T11:12:47;100923.81;;;34.26;25.20
78773;BME280;68111;44.728;11.290;2023-06-14T11:15:14;100920.34;;;34.14;25.45
78773;BME280;68111;44.728;11.290;2023-06-14T11:18:04;100908.81;;;33.91;25.43
78773;BME280;68111;44.728;11.290;2023-06-14T11:20:33;100907.78;;;33.83;25.59
78773;BME280;68111;44.728;11.290;2023-06-14T11:23:00;100906.13;;;33.70;25.45
78773;BME280;68111;44.728;11.290;2023-06-14T11:25:27;100904.38;;;33.69;25.67
78773;BME280;68111;44.728;11.290;2023-06-14T11:27:57;100904.09;;;33.72;25.72
78773;BME280;68111;44.728;11.290;2023-06-14T11:30:25;100899.41;;;33.84;25.50
78773;BME280;68111;44.728;11.290;2023-06-14T11:32:53;100893.44;;;33.79;25.27
78773;BME280;68111;44.728;11.290;2023-06-14T11:35:25;100900.00;;;33.38;25.77
78773;BME280;68111;44.728;11.290;2023-06-14T11:37:55;100893.88;;;32.94;26.46
78773;BME280;68111;44.728;11.290;2023-06-14T11:40:24;100892.25;;;32.82;26.48
78773;BME280;68111;44.728;11.290;2023-06-14T11:42:59;100893.44;;;32.89;26.38
78773;BME280;68111;44.728;11.290;2023-06-14T11:45:26;100887.75;;;33.12;26.16
78773;BME280;68111;44.728;11.290;2023-06-14T11:47:58;100890.22;;;33.15;25.77
78773;BME280;68111;44.728;11.290;2023-06-14T11:50:26;100888.59;;;33.02;25.83
78773;BME280;68111;44.728;11.290;2023-06-14T11:52:59;100880.19;;;32.94;26.04
78773;BME280;68111;44.728;11.290;2023-06-14T11:55:37;100880.06;;;32.96;27.93
78773;BME280;68111;44.728;11.290;2023-06-14T11:58:04;100885.63;;;32.85;26.76
78773;BME280;68111;44.728;11.290;2023-06-14T12:00:31;100882.44;;;32.80;26.26
78773;BME280;68111;44.728;11.290;2023-06-14T12:02:58;100887.28;;;32.76;26.68
78773;BME280;68111;44.728;11.290;2023-06-14T12:05:25;100876.34;;;32.76;26.35
78773;BME280;68111;44.728;11.290;2023-06-14T12:08:01;100876.38;;;32.55;26.43
78773;BME280;68111;44.728;11.290;2023-06-14T12:10:29;100875.88;;;32.50;26.70
78773;BME280;68111;44.728;11.290;2023-06-14T12:12:57;100869.28;;;32.53;26.78
78773;BME280;68111;44.728;11.290;2023-06-14T12:15:28;100867.66;;;32.71;26.58
78773;BME280;68111;44.728;11.290;2023-06-14T12:18:14;100864.88;;;32.82;26.09
78773;BME280;68111;44.728;11.290;2023-06-14T12:20:40;100866.19;;;32.67;26.45
78773;BME280;68111;44.728;11.290;2023-06-14T12:23:07;100860.78;;;32.35;26.75
78773;BME280;68111;44.728;11.290;2023-06-14T12:25:36;100859.75;;;32.15;27.18
78773;BME280;68111;44.728;11.290;2023-06-14T12:28:09;100856.56;;;32.10;27.05
78773;BME280;68111;44.728;11.290;2023-06-14T12:30:37;100860.81;;;32.03;27.14
78773;BME280;68111;44.728;11.290;2023-06-14T12:33:04;100855.19;;;31.83;27.84
78773;BME280;68111;44.728;11.290;2023-06-14T12:35:32;100862.09;;;31.56;28.85
78773;BME280;68111;44.728;11.290;2023-06-14T12:38:00;100859.13;;;31.47;29.01
78773;BME280;68111;44.728;11.290;2023-06-14T12:40:27;100858.41;;;31.45;29.29
78773;BME280;68111;44.728;11.290;2023-06-14T12:42:53;100853.53;;;31.49;28.84
78773;BME280;68111;44.728;11.290;2023-06-14T12:45:20;100854.03;;;31.54;28.99
78773;BME280;68111;44.728;11.290;2023-06-14T12:47:47;100850.56;;;31.52;28.81
78773;BME280;68111;44.728;11.290;2023-06-14T12:50:13;100852.25;;;31.64;28.71
78773;BME280;68111;44.728;11.290;2023-06-14T12:52:41;100849.13;;;31.80;28.81
78773;BME280;68111;44.728;11.290;2023-06-14T12:55:07;100852.47;;;31.83;28.43
78773;BME280;68111;44.728;11.290;2023-06-14T12:57:34;100857.00;;;31.94;28.52
78773;BME280;68111;44.728;11.290;2023-06-14T13:00:04;100854.06;;;31.86;28.03
78773;BME280;68111;44.728;11.290;2023-06-14T13:02:32;100859.44;;;31.76;28.62